Stony Rapids Airport
CYSF : now visible

Airfield :











YOU CAN JOIN US ON...

 
LOGIN :

Register | Disclaimer

   EN    FR    IT 

 









Legend :    VFR   Marginal VFR   IFR   Intensive IFR   Very Intensive IFR
Visi :
Ceiling :
>= 8 km
>= 3000ft
5 to 8 km
1000 to 3000 ft
1500m to 5 km
500 to 1000 ft
800 to 1500m
200 to 500 ft
< 800m
< 200 ft
Symbols :   Thunderstorms  Fog  Heavy snow  Heavy precipitations  Wind > 20 kt






- Airport Elevation : 805 ft
- IATA code : YSF


CYSF - Stony Rapids

CURRENT METAR :
  • 060400Z AUTO 08002KT 9SM CLR M06/M07 A3062 RMK SLP390

EXPIRED METARs :
  • 060300Z AUTO 00000KT 9SM CLR M04/M06 A3062 RMK SLP390
  • 060200Z AUTO 18004KT 9SM CLR M03/M06 A3062 RMK SLP389

TAF TAF CYSF
Valid from the 06 at 00:00 until the 06 at 12:00 UTC


052340Z 0600/0612 VRB03KT P6SM FEW030
FM060300 VRB03KT P6SM SKC RMK FCST BASED ON AUTO OBS. NXT FCST BY 060600Z
CZEG FIR / North America



MET'MAP, your aeronautical weather chart ! - Copyright ORBIFLY December 2007 - Disclaimer

ORBIFLY MET'MAP TEAM :

Programming & Development : Alexandra Zaïnal
Original concept : Baudouin d'Aumeries
Technical & hardware support : Manuel Goepfert
Assistance : Marc-Olivier Méhu




SOURCES & CREDITS :

   NOAA       Earth
Advisory